CheckWX is a tool to help pilots better visualize weather data.  It is not intended as a substitute for an official pre-flight weather briefing.

06:24:55 UTC

HTDA METAR
Julius Nyerere International Airport
Dar es Salaam, Tanzania
Current

2 hours ago

HTDA 140400Z 20005KT 9999 SCT012 FEW014CB 24/24 Q1013 NOSIG
Observed
Nov-14 @ 04:00 UTC
Wind
  • 200° at 5 KTS
Visibility
10,000+ meters
Flight Rules
VFR
Cloud Levels
  • Scattered at 1,200' AGL
  • Few at 1,400' AGL
Temperature
24°C / 75°F
Dewpoint
24°C / 75°F
Humidity
100%
Altimeter
29.91" Hg
Pressure
1012.92 hPa
Previous

3 hours ago

HTDA 140300Z 00000KT 9999 SCT012 23/23 Q1012 NOSIG
Observed
Nov-14 @ 03:00 UTC
Visibility
10,000+ meters
Flight Rules
VFR
Cloud Levels
  • Scattered at 1,200' AGL
Temperature
23°C / 73°F
Dewpoint
23°C / 73°F
Humidity
100%
Altimeter
29.88" Hg
Pressure
1011.92 hPa
Previous

5 hours ago

HTDA 140100Z 00000KT 9999 FEW012 23/23 Q1011 NOSIG
Observed
Nov-14 @ 01:00 UTC
Visibility
10,000+ meters
Flight Rules
VFR
Cloud Levels
  • Few at 1,200' AGL
Temperature
23°C / 73°F
Dewpoint
23°C / 73°F
Humidity
100%
Altimeter
29.85" Hg
Pressure
1010.92 hPa